createdAt,value
2018-07-22T00:01:54.306Z,53.10
2018-07-22T00:04:21.704Z,52.90
2018-07-22T00:06:49.096Z,53.10
2018-07-22T00:09:16.454Z,52.90
2018-07-22T00:11:43.793Z,53.00
2018-07-22T00:14:11.243Z,53.10
2018-07-22T00:16:38.573Z,53.60
2018-07-22T00:19:06.015Z,53.00
2018-07-22T00:21:33.404Z,53.20
2018-07-22T00:24:00.987Z,53.10
2018-07-22T00:26:28.379Z,53.10
2018-07-22T00:28:55.803Z,53.10
2018-07-22T00:31:23.163Z,53.20
2018-07-22T00:33:50.550Z,53.20
2018-07-22T00:36:17.927Z,53.50
2018-07-22T00:38:45.279Z,53.30
2018-07-22T00:41:12.634Z,53.60
2018-07-22T00:43:40.020Z,53.70
2018-07-22T00:46:07.395Z,53.90
2018-07-22T00:48:34.769Z,53.80
2018-07-22T00:51:02.158Z,53.90
2018-07-22T00:53:29.603Z,54.20
2018-07-22T00:55:57.012Z,54.30
2018-07-22T00:58:24.387Z,54.20
2018-07-22T01:00:51.768Z,54.20
2018-07-22T01:03:19.179Z,54.00
2018-07-22T01:05:46.539Z,54.40
2018-07-22T01:08:13.919Z,54.20
2018-07-22T01:10:41.371Z,54.30
2018-07-22T01:13:08.744Z,54.40
2018-07-22T01:15:36.147Z,54.30
2018-07-22T01:18:03.550Z,54.20
2018-07-22T01:20:30.931Z,54.10
2018-07-22T01:22:58.293Z,54.00
2018-07-22T01:25:25.696Z,53.80
2018-07-22T01:27:53.070Z,54.10
2018-07-22T01:30:20.451Z,53.70
2018-07-22T01:32:47.869Z,53.70
2018-07-22T01:35:15.223Z,53.70
2018-07-22T01:37:42.618Z,53.80
2018-07-22T01:40:09.995Z,53.70
2018-07-22T01:42:37.364Z,53.80
2018-07-22T01:45:04.758Z,53.80
2018-07-22T01:47:32.111Z,53.90
2018-07-22T01:49:59.470Z,54.20
2018-07-22T01:52:26.820Z,54.20
2018-07-22T01:54:54.164Z,54.30
2018-07-22T01:57:21.535Z,54.40
2018-07-22T01:59:48.896Z,54.40
2018-07-22T02:02:16.271Z,54.50
2018-07-22T02:04:43.652Z,54.50
2018-07-22T02:07:11.046Z,54.60
2018-07-22T02:09:38.396Z,55.00
2018-07-22T02:12:05.822Z,55.00
2018-07-22T02:14:33.359Z,55.20
2018-07-22T02:17:00.715Z,55.50
2018-07-22T02:19:28.125Z,55.80
2018-07-22T02:21:55.466Z,56.20
2018-07-22T02:24:22.812Z,56.40
2018-07-22T02:26:50.183Z,56.50
2018-07-22T02:29:17.553Z,56.30
2018-07-22T02:31:44.919Z,56.20
2018-07-22T02:34:12.279Z,56.30
2018-07-22T02:36:39.752Z,56.40
2018-07-22T02:39:09.495Z,56.50
2018-07-22T02:41:36.899Z,56.60
2018-07-22T02:44:04.406Z,56.80
2018-07-22T02:46:31.929Z,56.60
2018-07-22T02:48:59.280Z,56.60
2018-07-22T02:51:26.665Z,56.80
2018-07-22T02:53:54.036Z,57.10
2018-07-22T02:56:21.446Z,57.10
2018-07-22T02:58:48.852Z,57.10
2018-07-22T03:01:16.288Z,57.50
2018-07-22T03:03:43.671Z,57.40
2018-07-22T03:06:11.090Z,57.20
2018-07-22T03:08:38.474Z,57.40
2018-07-22T03:11:05.887Z,57.60
2018-07-22T03:13:33.273Z,58.10
2018-07-22T03:16:00.673Z,58.00
2018-07-22T03:18:28.028Z,57.80
2018-07-22T03:20:55.387Z,57.70
2018-07-22T03:23:22.804Z,58.20
2018-07-22T03:25:50.195Z,58.10
2018-07-22T03:28:17.560Z,58.10
2018-07-22T03:30:44.910Z,58.10
2018-07-22T03:33:12.282Z,58.20
2018-07-22T03:35:39.655Z,58.30
2018-07-22T03:38:07.015Z,58.20
2018-07-22T03:40:34.373Z,58.30
2018-07-22T03:43:01.739Z,58.30
2018-07-22T03:45:29.110Z,58.50
2018-07-22T03:47:56.468Z,58.70
2018-07-22T03:50:23.850Z,58.50
2018-07-22T03:52:51.199Z,58.60
2018-07-22T03:55:18.550Z,58.40
2018-07-22T03:57:45.906Z,58.80
2018-07-22T04:00:13.291Z,58.40
2018-07-22T04:02:40.671Z,59.00
2018-07-22T04:05:08.064Z,59.20
2018-07-22T04:07:35.444Z,59.00
2018-07-22T04:10:02.936Z,59.10
2018-07-22T04:12:30.338Z,59.90
2018-07-22T04:14:57.710Z,59.40
2018-07-22T04:17:25.087Z,59.70
2018-07-22T04:19:52.460Z,60.50
2018-07-22T04:22:19.865Z,60.00
2018-07-22T04:24:47.277Z,60.00
2018-07-22T04:27:17.634Z,60.40
2018-07-22T04:29:45.031Z,60.70
2018-07-22T04:32:12.426Z,61.10
2018-07-22T04:34:39.816Z,61.00
2018-07-22T04:37:07.187Z,61.60
2018-07-22T04:39:34.586Z,61.30
2018-07-22T04:42:01.968Z,61.30
2018-07-22T04:44:29.410Z,61.30
2018-07-22T04:46:56.819Z,61.20
2018-07-22T04:49:24.197Z,61.30
2018-07-22T04:51:51.611Z,61.40
2018-07-22T04:56:46.351Z,61.30
2018-07-22T04:59:13.723Z,61.60
2018-07-22T05:01:41.076Z,61.20
2018-07-22T05:04:08.493Z,61.30
2018-07-22T05:06:35.871Z,61.40
2018-07-22T05:09:05.449Z,61.50
2018-07-22T05:11:32.823Z,61.70
2018-07-22T05:14:00.199Z,62.20
2018-07-22T05:16:27.581Z,61.90
2018-07-22T05:18:54.983Z,62.20
2018-07-22T05:21:22.383Z,61.90
2018-07-22T05:23:49.759Z,62.10
2018-07-22T05:26:17.158Z,62.50
2018-07-22T05:28:44.555Z,62.10
2018-07-22T05:31:11.929Z,62.10
2018-07-22T05:33:39.317Z,62.00
2018-07-22T05:36:06.711Z,62.30
2018-07-22T05:38:34.088Z,62.50
2018-07-22T05:41:01.480Z,62.60
2018-07-22T05:43:28.824Z,62.70
2018-07-22T05:45:56.233Z,62.80
2018-07-22T05:48:23.649Z,63.80
2018-07-22T05:50:51.031Z,64.70
2018-07-22T05:53:18.684Z,65.60
2018-07-22T05:55:46.079Z,66.00
2018-07-22T05:58:13.505Z,66.10
2018-07-22T06:00:40.905Z,65.60
2018-07-22T06:03:08.345Z,65.40
2018-07-22T06:05:35.832Z,65.20
2018-07-22T06:08:03.279Z,65.80
2018-07-22T06:12:58.063Z,63.90
2018-07-22T06:15:25.512Z,63.00
2018-07-22T06:17:52.908Z,62.30
2018-07-22T06:20:20.275Z,61.70
2018-07-22T06:22:47.728Z,61.40
2018-07-22T06:25:15.180Z,60.70
2018-07-22T06:27:42.569Z,60.20
2018-07-22T06:30:10.007Z,59.40
2018-07-22T06:32:37.411Z,58.80
2018-07-22T06:35:05.027Z,57.80
2018-07-22T06:37:32.580Z,56.90
2018-07-22T06:40:00.028Z,56.50
2018-07-22T06:42:27.537Z,56.40
2018-07-22T06:44:54.906Z,56.40
2018-07-22T06:47:22.309Z,56.00
2018-07-22T06:49:49.880Z,55.40
2018-07-22T06:52:17.263Z,55.70
2018-07-22T06:54:44.681Z,55.30
2018-07-22T06:57:12.148Z,54.60
2018-07-22T06:59:39.527Z,54.70
2018-07-22T07:02:06.960Z,55.00
2018-07-22T07:04:34.363Z,54.50
2018-07-22T07:07:01.770Z,54.20
2018-07-22T07:09:29.213Z,54.60
2018-07-22T07:11:56.635Z,54.80
2018-07-22T07:14:24.015Z,54.60
2018-07-22T07:16:51.427Z,54.50
2018-07-22T07:19:18.844Z,53.10
2018-07-22T07:21:46.223Z,52.00
2018-07-22T07:24:13.585Z,51.90
2018-07-22T07:26:41.239Z,51.80
2018-07-22T07:29:08.623Z,50.70
2018-07-22T07:31:36.010Z,51.00
2018-07-22T07:34:03.413Z,49.10
2018-07-22T07:36:30.809Z,49.30
2018-07-22T07:38:58.223Z,48.70
2018-07-22T07:41:25.633Z,47.60
2018-07-22T07:43:53.039Z,47.50
2018-07-22T07:46:20.448Z,47.40
2018-07-22T07:48:47.880Z,47.70
2018-07-22T07:51:15.306Z,47.10
2018-07-22T07:53:42.703Z,47.50
2018-07-22T07:56:10.118Z,47.50
2018-07-22T07:58:37.513Z,47.60
2018-07-22T08:01:04.998Z,47.30
2018-07-22T08:03:32.479Z,47.20
2018-07-22T08:05:59.876Z,47.10
2018-07-22T08:08:27.369Z,47.00
2018-07-22T08:10:54.836Z,46.90
2018-07-22T08:13:22.216Z,46.10
2018-07-22T08:15:49.673Z,45.90
2018-07-22T08:18:17.106Z,46.10
2018-07-22T08:20:44.528Z,46.50
2018-07-22T08:23:12.056Z,46.60
2018-07-22T08:25:39.469Z,46.40
2018-07-22T08:28:06.849Z,46.40
2018-07-22T08:30:34.287Z,44.60
2018-07-22T08:33:01.694Z,45.40
2018-07-22T08:35:29.302Z,43.20
2018-07-22T08:37:56.699Z,43.40
2018-07-22T08:40:24.850Z,44.50
2018-07-22T08:42:52.229Z,45.40
2018-07-22T08:45:19.628Z,44.90
2018-07-22T08:47:47.157Z,45.00
2018-07-22T08:50:14.529Z,44.60
2018-07-22T08:52:41.911Z,43.40
2018-07-22T08:55:09.337Z,43.90
2018-07-22T08:57:36.755Z,42.90
2018-07-22T09:00:04.745Z,42.50
2018-07-22T09:02:32.146Z,41.50
2018-07-22T09:04:59.748Z,41.50
2018-07-22T09:07:27.146Z,41.30
2018-07-22T09:09:54.507Z,41.10
2018-07-22T09:12:21.879Z,41.90
2018-07-22T09:14:49.255Z,42.80
2018-07-22T09:17:16.614Z,43.40
2018-07-22T09:19:43.966Z,43.50
2018-07-22T09:22:11.347Z,43.10
2018-07-22T09:24:38.703Z,43.30
2018-07-22T09:27:06.524Z,43.30
2018-07-22T09:32:01.219Z,43.30
2018-07-22T09:34:28.643Z,43.50
2018-07-22T09:39:23.403Z,43.80
2018-07-22T09:41:50.891Z,43.70
2018-07-22T09:44:18.310Z,43.70
2018-07-22T09:46:45.678Z,42.50
2018-07-22T09:49:13.040Z,42.50
2018-07-22T09:51:40.423Z,41.90
2018-07-22T09:54:07.832Z,41.60
2018-07-22T09:56:35.194Z,42.10
2018-07-22T09:59:02.612Z,42.00
2018-07-22T10:01:30.025Z,41.80
2018-07-22T10:06:24.808Z,41.20
2018-07-22T10:08:52.429Z,39.80
2018-07-22T10:11:19.892Z,39.70
2018-07-22T10:13:47.231Z,40.20
2018-07-22T10:16:14.625Z,40.50
2018-07-22T10:18:42.022Z,40.80
2018-07-22T10:21:09.415Z,40.40
2018-07-22T10:23:36.843Z,40.10
2018-07-22T10:26:04.244Z,40.00
2018-07-22T10:28:31.643Z,40.20
2018-07-22T10:30:59.045Z,39.30
2018-07-22T10:33:26.409Z,38.00
2018-07-22T10:35:53.903Z,38.90
2018-07-22T10:38:21.242Z,36.80
2018-07-22T10:40:48.663Z,36.40
2018-07-22T10:43:16.010Z,36.40
2018-07-22T10:45:43.404Z,37.10
2018-07-22T10:48:10.837Z,37.00
2018-07-22T10:50:38.243Z,36.00
2018-07-22T10:53:05.691Z,36.10
2018-07-22T10:55:33.059Z,36.30
2018-07-22T10:58:00.451Z,35.30
2018-07-22T11:00:27.823Z,35.80
2018-07-22T11:02:55.227Z,35.50
2018-07-22T11:07:50.212Z,36.20
2018-07-22T11:10:17.588Z,36.10
2018-07-22T11:12:44.980Z,35.30
2018-07-22T11:15:12.361Z,35.20
2018-07-22T11:17:39.814Z,35.20
2018-07-22T11:20:07.223Z,35.30
2018-07-22T11:22:34.578Z,35.30
2018-07-22T11:25:01.955Z,35.20
2018-07-22T11:27:29.397Z,35.60
2018-07-22T11:29:56.779Z,34.30
2018-07-22T11:32:24.171Z,34.00
2018-07-22T11:34:51.559Z,34.00
2018-07-22T11:37:18.928Z,34.60
2018-07-22T11:39:46.275Z,35.10
2018-07-22T11:42:13.668Z,35.00
2018-07-22T11:44:41.035Z,34.50
2018-07-22T11:47:08.443Z,35.00
2018-07-22T11:49:35.836Z,35.50
2018-07-22T11:52:03.264Z,35.20
2018-07-22T11:56:58.008Z,35.40
2018-07-22T11:59:25.382Z,35.60
2018-07-22T12:01:52.876Z,35.50
2018-07-22T12:04:20.269Z,35.30
2018-07-22T12:06:47.648Z,35.40
2018-07-22T12:09:15.043Z,35.30
2018-07-22T12:11:42.524Z,35.40
2018-07-22T12:14:09.963Z,35.10
2018-07-22T12:16:37.351Z,35.00
2018-07-22T12:19:04.996Z,35.10
2018-07-22T12:21:32.666Z,34.40
2018-07-22T12:24:00.069Z,35.30
2018-07-22T12:26:27.464Z,35.30
2018-07-22T12:28:54.845Z,35.30
2018-07-22T12:31:22.233Z,34.10
2018-07-22T12:33:49.688Z,34.30
2018-07-22T12:36:17.091Z,34.70
2018-07-22T12:38:44.510Z,35.20
2018-07-22T12:41:11.913Z,35.00
2018-07-22T12:43:39.282Z,34.90
2018-07-22T12:46:06.701Z,35.10
2018-07-22T12:48:34.264Z,35.40
2018-07-22T12:51:01.688Z,35.20
2018-07-22T12:53:29.071Z,35.20
2018-07-22T12:55:56.456Z,35.30
2018-07-22T12:58:23.872Z,35.30
2018-07-22T13:00:51.238Z,34.10
2018-07-22T13:03:18.625Z,34.10
2018-07-22T13:05:46.011Z,34.20
2018-07-22T13:08:13.388Z,34.40
2018-07-22T13:13:08.185Z,34.40
2018-07-22T13:15:35.535Z,34.80
2018-07-22T13:18:02.952Z,34.90
2018-07-22T13:20:30.351Z,35.20
2018-07-22T13:22:57.718Z,35.20
2018-07-22T13:25:25.107Z,35.30
2018-07-22T13:27:52.514Z,35.30
2018-07-22T13:30:19.894Z,35.00
2018-07-22T13:32:47.268Z,35.10
2018-07-22T13:35:14.631Z,35.00
2018-07-22T13:37:42.017Z,34.90
2018-07-22T13:40:09.380Z,35.10
2018-07-22T13:42:36.787Z,35.30
2018-07-22T13:45:04.542Z,35.10
2018-07-22T13:47:31.915Z,35.00
2018-07-22T13:49:59.356Z,35.20
2018-07-22T13:52:26.741Z,34.70
2018-07-22T13:54:54.100Z,34.40
2018-07-22T13:57:21.493Z,34.40
2018-07-22T14:02:16.203Z,34.30
2018-07-22T14:04:43.591Z,34.20
2018-07-22T14:07:11.048Z,33.80
2018-07-22T14:09:38.383Z,33.40
2018-07-22T14:14:33.168Z,33.20
2018-07-22T14:17:00.569Z,32.90
2018-07-22T14:19:28.903Z,33.00
2018-07-22T14:21:56.305Z,32.40
2018-07-22T14:26:50.998Z,31.60
2018-07-22T14:31:45.771Z,31.00
2018-07-22T14:34:13.160Z,30.30
2018-07-22T14:36:40.654Z,30.60
2018-07-22T14:39:09.634Z,30.80
2018-07-22T14:41:38.472Z,30.90
2018-07-22T14:44:05.921Z,31.00
2018-07-22T14:46:33.295Z,31.00
2018-07-22T14:49:00.722Z,31.30
2018-07-22T14:51:28.060Z,31.30
2018-07-22T14:53:55.488Z,31.40
2018-07-22T14:56:22.911Z,31.30
2018-07-22T14:58:50.359Z,31.50
2018-07-22T15:01:17.795Z,31.20
2018-07-22T15:03:45.177Z,31.10
2018-07-22T15:06:13.032Z,31.20
2018-07-22T15:08:40.763Z,31.20
2018-07-22T15:11:08.188Z,30.40
2018-07-22T15:13:35.936Z,30.20
2018-07-22T15:16:03.432Z,29.90
2018-07-22T15:18:30.912Z,29.80
2018-07-22T15:20:58.324Z,30.00
2018-07-22T15:23:26.399Z,30.30
2018-07-22T15:25:53.810Z,30.80
2018-07-22T15:28:21.255Z,30.80
2018-07-22T15:30:48.652Z,31.30
2018-07-22T15:33:16.056Z,31.30
2018-07-22T15:35:43.472Z,31.00
2018-07-22T15:38:11.125Z,31.40
2018-07-22T15:40:38.623Z,31.50
2018-07-22T15:43:06.081Z,31.20
2018-07-22T15:45:33.898Z,30.70
2018-07-22T15:48:01.356Z,31.30
2018-07-22T15:50:28.796Z,31.50
2018-07-22T15:52:56.234Z,31.50
2018-07-22T15:55:24.001Z,31.50
2018-07-22T15:57:51.175Z,30.80
2018-07-22T16:00:18.560Z,31.00
2018-07-22T16:02:45.961Z,31.80
2018-07-22T16:05:13.399Z,31.90
2018-07-22T16:07:40.785Z,30.90
2018-07-22T16:10:08.167Z,31.00
2018-07-22T16:12:35.587Z,30.80
2018-07-22T16:15:03.250Z,31.50
2018-07-22T16:17:30.672Z,31.10
2018-07-22T16:19:58.290Z,31.30
2018-07-22T16:22:25.760Z,31.60
2018-07-22T16:24:53.164Z,31.50
2018-07-22T16:27:20.779Z,31.50
2018-07-22T16:29:48.244Z,31.60
2018-07-22T16:32:15.659Z,31.50
2018-07-22T16:34:43.051Z,31.50
2018-07-22T16:37:10.484Z,31.50
2018-07-22T16:39:37.991Z,31.40
2018-07-22T16:42:05.489Z,31.70
2018-07-22T16:44:32.887Z,31.60
2018-07-22T16:47:00.287Z,31.80
2018-07-22T16:49:27.672Z,32.00
2018-07-22T16:51:55.045Z,32.00
2018-07-22T16:54:22.453Z,31.60
2018-07-22T16:56:49.863Z,31.80
2018-07-22T16:59:17.285Z,31.90
2018-07-22T17:01:44.700Z,32.10
2018-07-22T17:04:12.124Z,32.40
2018-07-22T17:06:39.511Z,32.90
2018-07-22T17:09:08.527Z,33.50
2018-07-22T17:11:35.931Z,33.80
2018-07-22T17:14:03.412Z,33.50
2018-07-22T17:16:31.011Z,33.70
2018-07-22T17:18:58.424Z,34.00
2018-07-22T17:21:25.859Z,33.80
2018-07-22T17:23:53.334Z,34.00
2018-07-22T17:26:20.796Z,33.60
2018-07-22T17:28:48.323Z,34.00
2018-07-22T17:31:15.810Z,34.30
2018-07-22T17:33:43.185Z,34.20
2018-07-22T17:36:10.600Z,33.70
2018-07-22T17:38:38.016Z,34.00
2018-07-22T17:41:06.066Z,33.50
2018-07-22T17:43:33.452Z,33.50
2018-07-22T17:46:00.882Z,33.50
2018-07-22T17:48:28.275Z,34.00
2018-07-22T17:50:55.676Z,34.10
2018-07-22T17:53:23.085Z,34.40
2018-07-22T17:55:50.466Z,34.70
2018-07-22T17:58:17.871Z,35.10
2018-07-22T18:00:45.273Z,35.50
2018-07-22T18:03:19.359Z,35.70
2018-07-22T18:05:46.732Z,35.60
2018-07-22T18:08:14.208Z,36.10
2018-07-22T18:10:41.661Z,36.40
2018-07-22T18:13:09.111Z,36.50
2018-07-22T18:15:36.543Z,36.40
2018-07-22T18:18:04.148Z,36.60
2018-07-22T18:20:31.672Z,36.60
2018-07-22T18:22:59.177Z,36.60
2018-07-22T18:25:26.581Z,36.40
2018-07-22T18:27:54.004Z,35.80
2018-07-22T18:30:21.446Z,35.50
2018-07-22T18:32:48.894Z,35.50
2018-07-22T18:35:16.372Z,35.60
2018-07-22T18:37:43.832Z,35.70
2018-07-22T18:40:11.283Z,35.90
2018-07-22T18:42:38.712Z,35.90
2018-07-22T18:45:06.159Z,36.00
2018-07-22T18:47:33.617Z,36.10
2018-07-22T18:50:01.088Z,36.20
2018-07-22T18:52:28.516Z,36.30
2018-07-22T18:54:55.987Z,36.40
2018-07-22T18:57:23.424Z,36.70
2018-07-22T18:59:50.941Z,36.80
2018-07-22T19:02:18.358Z,36.90
2018-07-22T19:04:45.820Z,37.00
2018-07-22T19:07:13.244Z,37.20
2018-07-22T19:09:40.648Z,37.40
2018-07-22T19:12:08.094Z,37.70
2018-07-22T19:14:35.515Z,37.80
2018-07-22T19:17:04.315Z,38.10
2018-07-22T19:19:31.831Z,38.40
2018-07-22T19:21:59.247Z,38.50
2018-07-22T19:24:26.667Z,38.70
2018-07-22T19:26:54.396Z,39.20
2018-07-22T19:29:21.791Z,39.60
2018-07-22T19:31:49.227Z,40.30
2018-07-22T19:34:16.676Z,40.70
2018-07-22T19:36:44.119Z,41.50
2018-07-22T19:39:11.554Z,41.50
2018-07-22T19:41:39.028Z,41.50
2018-07-22T19:44:06.884Z,42.00
2018-07-22T19:46:34.576Z,42.30
2018-07-22T19:49:02.000Z,42.60
2018-07-22T19:51:29.444Z,43.50
2018-07-22T19:53:56.863Z,43.20
2018-07-22T19:56:24.294Z,44.20
2018-07-22T19:58:51.715Z,44.60
2018-07-22T20:01:19.139Z,44.20
2018-07-22T20:03:46.591Z,44.40
2018-07-22T20:08:41.425Z,45.50
2018-07-22T20:11:08.877Z,45.00
2018-07-22T20:13:36.280Z,45.50
2018-07-22T20:16:03.736Z,45.40
2018-07-22T20:18:31.671Z,45.50
2018-07-22T20:20:59.128Z,46.20
2018-07-22T20:23:26.591Z,46.20
2018-07-22T20:25:54.055Z,46.60
2018-07-22T20:28:21.472Z,46.70
2018-07-22T20:30:48.879Z,46.70
2018-07-22T20:33:16.308Z,46.60
2018-07-22T20:35:43.744Z,47.20
2018-07-22T20:40:38.599Z,46.70
2018-07-22T20:43:06.037Z,46.80
2018-07-22T20:45:33.478Z,46.90
2018-07-22T20:48:00.929Z,47.20
2018-07-22T20:50:28.362Z,47.40
2018-07-22T20:52:55.775Z,47.50
2018-07-22T20:55:23.289Z,47.30
2018-07-22T20:57:50.719Z,47.50
2018-07-22T21:00:18.164Z,47.60
2018-07-22T21:02:46.203Z,48.00
2018-07-22T21:05:13.639Z,48.00
2018-07-22T21:07:41.811Z,48.00
2018-07-22T21:10:09.277Z,48.20
2018-07-22T21:12:51.474Z,48.20
2018-07-22T21:15:19.147Z,48.50
2018-07-22T21:17:47.417Z,48.20
2018-07-22T21:20:15.755Z,48.40
2018-07-22T21:22:43.178Z,48.60
2018-07-22T21:25:10.870Z,48.70
2018-07-22T21:27:38.316Z,48.70
2018-07-22T21:30:06.626Z,48.80
2018-07-22T21:32:34.051Z,48.90
2018-07-22T21:35:01.642Z,48.90
2018-07-22T21:37:29.075Z,49.20
2018-07-22T21:39:56.505Z,49.10
2018-07-22T21:42:23.964Z,49.20
2018-07-22T21:44:51.365Z,49.20
2018-07-22T21:47:18.764Z,49.30
2018-07-22T21:49:46.183Z,49.50
2018-07-22T21:52:13.584Z,49.40
2018-07-22T21:54:41.007Z,49.20
2018-07-22T21:57:08.427Z,49.10
2018-07-22T21:59:35.835Z,49.30
2018-07-22T22:02:03.361Z,49.50
2018-07-22T22:04:30.822Z,49.40
2018-07-22T22:06:58.264Z,49.70
2018-07-22T22:09:25.707Z,49.50
2018-07-22T22:11:53.319Z,49.70
2018-07-22T22:14:20.724Z,49.80
2018-07-22T22:16:48.588Z,49.90
2018-07-22T22:19:16.017Z,49.70
2018-07-22T22:21:43.479Z,49.80
2018-07-22T22:24:10.896Z,50.60
2018-07-22T22:26:38.308Z,50.60
2018-07-22T22:29:05.745Z,51.20
2018-07-22T22:31:33.297Z,51.40
2018-07-22T22:34:00.736Z,51.90
2018-07-22T22:36:28.311Z,51.80
2018-07-22T22:38:55.744Z,51.60
2018-07-22T22:41:23.140Z,51.60
2018-07-22T22:43:50.583Z,51.30
2018-07-22T22:46:17.987Z,51.30
2018-07-22T22:48:45.383Z,51.30
2018-07-22T22:51:12.791Z,51.30
2018-07-22T22:53:40.176Z,51.10
2018-07-22T22:56:07.575Z,51.50
2018-07-22T22:58:46.571Z,51.50
2018-07-22T23:01:14.004Z,51.80
2018-07-22T23:03:41.386Z,51.60
2018-07-22T23:06:08.775Z,51.80
2018-07-22T23:08:36.178Z,51.70
2018-07-22T23:11:03.582Z,51.50
2018-07-22T23:13:31.028Z,51.50
2018-07-22T23:15:58.408Z,51.40
2018-07-22T23:18:25.803Z,51.40
2018-07-22T23:20:53.198Z,51.50
2018-07-22T23:23:20.622Z,51.30
2018-07-22T23:25:48.015Z,51.20
2018-07-22T23:28:15.444Z,51.50
2018-07-22T23:30:42.909Z,51.50
2018-07-22T23:33:10.297Z,51.60
2018-07-22T23:35:37.730Z,51.60
2018-07-22T23:38:05.309Z,51.30
2018-07-22T23:40:33.653Z,51.40
2018-07-22T23:43:01.058Z,52.20
2018-07-22T23:45:28.567Z,51.50
2018-07-22T23:47:55.981Z,51.70
2018-07-22T23:50:23.454Z,51.50
2018-07-22T23:52:50.851Z,51.80
2018-07-22T23:55:18.299Z,51.80
2018-07-22T23:57:45.726Z,51.70
